createdAt,value
2022-12-23T00:00:02.613Z,45.73
2022-12-23T00:02:32.768Z,49.33
2022-12-23T00:05:02.365Z,52.10
2022-12-23T00:07:32.108Z,55.13
2022-12-23T00:10:01.646Z,49.57
2022-12-23T00:12:46.266Z,49.13
2022-12-23T00:15:17.035Z,50.93
2022-12-23T00:17:47.971Z,52.93
2022-12-23T00:20:18.306Z,51.90
2022-12-23T00:23:00.258Z,47.30
2022-12-23T00:25:42.752Z,55.40
2022-12-23T00:28:17.047Z,47.40
2022-12-23T00:30:50.958Z,46.97
2022-12-23T00:33:22.466Z,56.47
2022-12-23T00:35:52.815Z,50.03
2022-12-23T00:38:43.289Z,50.57
2022-12-23T00:41:26.552Z,61.80
2022-12-23T00:43:58.659Z,46.10
2022-12-23T00:46:28.297Z,52.07
2022-12-23T00:49:10.532Z,55.13
2022-12-23T00:51:39.960Z,56.20
2022-12-23T00:54:10.222Z,66.20
2022-12-23T00:56:39.983Z,54.80
2022-12-23T00:59:12.124Z,53.97
2022-12-23T01:01:54.205Z,63.03
2022-12-23T01:04:36.362Z,52.33
2022-12-23T01:07:05.999Z,50.47
2022-12-23T01:09:35.723Z,59.67
2022-12-23T01:12:05.334Z,62.83
2022-12-23T01:14:37.545Z,60.20
2022-12-23T01:17:08.476Z,52.57
2022-12-23T01:19:38.432Z,56.20
2022-12-23T01:22:07.909Z,58.40
2022-12-23T01:24:37.321Z,56.17
2022-12-23T01:27:06.802Z,59.50
2022-12-23T01:29:38.758Z,62.67
2022-12-23T01:32:08.339Z,58.90
2022-12-23T01:34:37.961Z,55.00
2022-12-23T01:37:07.751Z,63.90
2022-12-23T01:39:37.229Z,61.63
2022-12-23T01:42:19.247Z,71.33
2022-12-23T01:44:56.877Z,62.57
2022-12-23T01:47:36.516Z,53.90
2022-12-23T01:50:10.348Z,55.70
2022-12-23T01:52:44.250Z,65.20
2022-12-23T01:55:14.210Z,57.30
2022-12-23T01:57:44.579Z,68.43
2022-12-23T02:00:30.045Z,63.93
2022-12-23T02:03:12.025Z,66.90
2022-12-23T02:05:41.852Z,63.13
2022-12-23T02:08:23.957Z,76.70
2022-12-23T02:11:12.564Z,62.10
2022-12-23T02:14:09.212Z,60.47
2022-12-23T02:16:47.382Z,61.47
2022-12-23T02:19:20.798Z,64.57
2022-12-23T02:22:00.336Z,65.10
2022-12-23T02:24:52.144Z,59.53
2022-12-23T02:27:33.195Z,65.00
2022-12-23T02:30:29.264Z,66.30
2022-12-23T02:33:26.188Z,68.33
2022-12-23T02:36:01.385Z,55.87
2022-12-23T02:38:33.170Z,64.73
2022-12-23T02:41:09.740Z,64.87
2022-12-23T02:43:44.769Z,70.07
2022-12-23T02:46:15.589Z,67.17
2022-12-23T02:48:52.358Z,61.07
2022-12-23T02:51:23.813Z,65.10
2022-12-23T02:53:55.737Z,57.90
2022-12-23T02:56:26.511Z,60.10
2022-12-23T02:58:59.882Z,72.97
2022-12-23T03:01:30.551Z,69.13
2022-12-23T03:04:02.772Z,55.83
2022-12-23T03:06:35.205Z,66.47
2022-12-23T03:09:04.620Z,60.87
2022-12-23T03:11:40.358Z,65.57
2022-12-23T03:14:29.867Z,68.47
2022-12-23T03:17:03.762Z,64.00
2022-12-23T03:19:42.421Z,63.37
2022-12-23T03:22:17.234Z,69.57
2022-12-23T03:24:50.733Z,66.47
2022-12-23T03:27:21.763Z,63.30
2022-12-23T03:29:57.276Z,65.73
2022-12-23T03:32:27.952Z,70.30
2022-12-23T03:35:02.012Z,65.67
2022-12-23T03:37:33.632Z,77.30
2022-12-23T03:40:07.332Z,70.37
2022-12-23T03:42:39.026Z,73.90
2022-12-23T03:45:38.727Z,78.60
2022-12-23T03:48:08.425Z,75.90
2022-12-23T03:50:42.927Z,70.93
2022-12-23T03:53:15.339Z,70.57
2022-12-23T03:55:49.093Z,75.60
2022-12-23T03:58:27.239Z,74.40
2022-12-23T04:01:01.069Z,73.73
2022-12-23T04:03:35.883Z,74.63
2022-12-23T04:06:11.991Z,66.63
2022-12-23T04:08:41.796Z,77.97
2022-12-23T04:11:11.321Z,76.53
2022-12-23T04:13:40.921Z,74.37
2022-12-23T04:16:11.075Z,80.97
2022-12-23T04:18:40.522Z,77.30
2022-12-23T04:21:12.496Z,77.07
2022-12-23T04:23:42.437Z,80.87
2022-12-23T04:26:11.970Z,77.87
2022-12-23T04:28:41.421Z,86.13
2022-12-23T04:31:10.886Z,85.90
2022-12-23T04:33:40.776Z,76.00
2022-12-23T04:36:15.446Z,84.53
2022-12-23T04:38:44.901Z,79.50
2022-12-23T04:41:14.492Z,83.87
2022-12-23T04:43:49.290Z,83.30
2022-12-23T04:46:22.129Z,92.70
2022-12-23T04:48:51.595Z,113.00
2022-12-23T04:51:23.801Z,93.13
2022-12-23T04:53:53.275Z,98.00
2022-12-23T04:56:23.018Z,99.07
2022-12-23T04:58:52.751Z,98.67
2022-12-23T05:01:22.155Z,89.27
2022-12-23T05:03:51.828Z,89.30
2022-12-23T05:06:23.811Z,87.53
2022-12-23T05:08:53.408Z,89.87
2022-12-23T05:11:22.778Z,90.00
2022-12-23T05:13:52.296Z,87.90
2022-12-23T05:16:22.192Z,85.47
2022-12-23T05:18:51.644Z,89.17
2022-12-23T05:21:23.674Z,91.00
2022-12-23T05:23:53.348Z,89.13
2022-12-23T05:26:22.793Z,87.50
2022-12-23T05:28:52.936Z,97.43
2022-12-23T05:31:22.378Z,93.73
2022-12-23T05:33:51.894Z,96.93
2022-12-23T05:36:23.922Z,99.57
2022-12-23T05:38:54.116Z,105.90
2022-12-23T05:41:23.815Z,90.50
2022-12-23T05:43:53.240Z,90.47
2022-12-23T05:46:26.618Z,95.00
2022-12-23T05:48:57.063Z,102.10
2022-12-23T05:51:29.249Z,96.90
2022-12-23T05:53:58.669Z,105.07
2022-12-23T05:56:28.305Z,96.33
2022-12-23T05:58:57.715Z,103.53
2022-12-23T06:01:27.131Z,104.70
2022-12-23T06:03:56.716Z,97.17
2022-12-23T06:06:28.995Z,120.77
2022-12-23T06:08:59.995Z,103.20
2022-12-23T06:11:30.056Z,105.40
2022-12-23T06:13:59.446Z,107.87
2022-12-23T06:16:28.941Z,142.70
2022-12-23T06:18:59.015Z,112.40
2022-12-23T06:21:31.037Z,110.83
2022-12-23T06:24:00.750Z,106.17
2022-12-23T06:26:30.554Z,122.83
2022-12-23T06:28:59.996Z,98.57
2022-12-23T06:31:29.439Z,102.67
2022-12-23T06:33:58.843Z,133.50
2022-12-23T06:36:31.077Z,120.63
2022-12-23T06:39:00.802Z,136.03
2022-12-23T06:41:30.217Z,151.93
2022-12-23T06:43:59.714Z,132.67
2022-12-23T06:46:29.219Z,144.67
2022-12-23T06:48:58.749Z,166.43
2022-12-23T06:51:31.361Z,154.70
2022-12-23T06:54:01.949Z,160.07
2022-12-23T06:56:31.444Z,100.07
2022-12-23T06:59:00.851Z,100.27
2022-12-23T07:01:30.294Z,128.47
2022-12-23T07:03:59.820Z,86.93
2022-12-23T07:06:31.961Z,246.03
2022-12-23T07:09:01.818Z,147.67
2022-12-23T07:11:31.293Z,154.40
2022-12-23T07:14:00.696Z,121.67
2022-12-23T07:16:30.105Z,107.13
2022-12-23T07:18:59.613Z,88.37
2022-12-23T07:21:31.610Z,132.27
2022-12-23T07:24:01.329Z,89.53
2022-12-23T07:26:30.859Z,339.23
2022-12-23T07:29:00.277Z,94.27
2022-12-23T07:31:29.776Z,153.63
2022-12-23T07:33:59.446Z,94.30
2022-12-23T07:36:31.706Z,140.10
2022-12-23T07:39:01.241Z,156.77
2022-12-23T07:41:30.622Z,132.73
2022-12-23T07:44:00.089Z,83.40
2022-12-23T07:46:30.078Z,133.30
2022-12-23T07:48:59.615Z,122.30
2022-12-23T07:51:34.617Z,122.83
2022-12-23T07:54:04.048Z,82.87
2022-12-23T07:56:33.487Z,122.67
2022-12-23T07:59:02.924Z,84.60
2022-12-23T08:01:32.514Z,82.17
2022-12-23T08:04:02.230Z,96.53
2022-12-23T08:06:34.259Z,167.33
2022-12-23T08:09:03.693Z,124.63
2022-12-23T08:11:33.069Z,238.70
2022-12-23T08:14:02.515Z,137.47
2022-12-23T08:16:34.316Z,130.73
2022-12-23T08:19:07.357Z,96.77
2022-12-23T08:21:41.893Z,94.97
2022-12-23T08:24:11.437Z,306.67
2022-12-23T08:26:40.924Z,100.20
2022-12-23T08:29:10.343Z,87.17
2022-12-23T08:31:39.907Z,95.77
2022-12-23T08:34:09.345Z,114.87
2022-12-23T08:36:42.494Z,118.67
2022-12-23T08:39:13.155Z,87.13
2022-12-23T08:41:44.850Z,93.17
2022-12-23T08:44:14.989Z,99.27
2022-12-23T08:46:45.012Z,96.77
2022-12-23T08:49:14.941Z,81.43
2022-12-23T08:51:46.942Z,100.13
2022-12-23T08:54:17.432Z,99.70
2022-12-23T08:56:47.047Z,85.80
2022-12-23T08:59:19.592Z,112.20
2022-12-23T09:01:50.427Z,112.30
2022-12-23T09:04:20.179Z,85.23
2022-12-23T09:06:52.241Z,78.17
2022-12-23T09:09:22.155Z,146.83
2022-12-23T09:11:51.558Z,163.70
2022-12-23T09:14:21.002Z,71.80
2022-12-23T09:16:52.869Z,88.93
2022-12-23T09:19:22.466Z,80.47
2022-12-23T09:21:54.587Z,82.53
2022-12-23T09:24:27.358Z,107.50
2022-12-23T09:26:56.929Z,82.63
2022-12-23T09:29:26.466Z,75.77
2022-12-23T09:31:56.029Z,75.83
2022-12-23T09:34:26.704Z,72.77
2022-12-23T09:36:58.738Z,62.53
2022-12-23T09:39:28.405Z,72.47
2022-12-23T09:42:05.639Z,78.47
2022-12-23T09:44:43.221Z,74.87
2022-12-23T09:47:17.443Z,84.07
2022-12-23T09:49:51.646Z,63.63
2022-12-23T09:52:33.076Z,68.03
2022-12-23T09:55:02.567Z,85.13
2022-12-23T09:57:37.643Z,83.23
2022-12-23T10:00:10.676Z,83.53
2022-12-23T10:02:47.978Z,75.93
2022-12-23T10:05:26.546Z,72.30
2022-12-23T10:08:02.587Z,74.83
2022-12-23T10:10:36.370Z,75.93
2022-12-23T10:13:08.217Z,71.07
2022-12-23T10:15:40.605Z,71.27
2022-12-23T10:18:19.731Z,72.10
2022-12-23T10:20:53.032Z,75.20
2022-12-23T10:23:31.109Z,69.17
2022-12-23T10:26:00.757Z,79.97
2022-12-23T10:28:30.519Z,73.23
2022-12-23T10:34:02.641Z,74.20
2022-12-23T10:36:38.490Z,72.30
2022-12-23T10:39:16.898Z,70.77
2022-12-23T10:41:52.498Z,70.40
2022-12-23T10:44:50.009Z,76.63
2022-12-23T10:47:23.315Z,65.07
2022-12-23T10:50:00.322Z,65.13
2022-12-23T10:52:31.882Z,70.23
2022-12-23T10:55:04.994Z,56.70
2022-12-23T10:57:34.828Z,61.97
2022-12-23T11:00:04.573Z,60.40
2022-12-23T11:02:47.472Z,59.50
2022-12-23T11:05:30.385Z,59.80
2022-12-23T11:08:00.375Z,57.63
2022-12-23T11:10:34.301Z,48.17
2022-12-23T11:13:04.031Z,61.33
2022-12-23T11:15:35.661Z,60.40
2022-12-23T11:18:09.795Z,67.20
2022-12-23T11:20:39.586Z,60.50
2022-12-23T11:23:19.379Z,79.87
2022-12-23T11:25:52.182Z,60.70
2022-12-23T11:28:22.912Z,53.47
2022-12-23T11:30:57.346Z,60.77
2022-12-23T11:33:28.694Z,67.17
2022-12-23T11:36:06.796Z,50.97
2022-12-23T11:38:38.516Z,55.37
2022-12-23T11:41:10.819Z,58.60
2022-12-23T11:43:42.344Z,50.43
2022-12-23T11:46:28.432Z,58.10
2022-12-23T11:49:17.659Z,63.93
2022-12-23T11:51:48.286Z,54.43
2022-12-23T11:54:22.251Z,59.03
2022-12-23T11:56:55.351Z,62.40
2022-12-23T11:59:35.826Z,61.50
2022-12-23T12:02:07.586Z,59.40
2022-12-23T12:04:38.386Z,60.13
2022-12-23T12:07:08.697Z,65.90
2022-12-23T12:09:43.424Z,72.20
2022-12-23T12:12:21.080Z,73.60
2022-12-23T12:14:52.788Z,50.37
2022-12-23T12:17:26.142Z,60.07
2022-12-23T12:20:02.835Z,56.53
2022-12-23T12:22:36.678Z,63.40
2022-12-23T12:25:14.739Z,56.33
2022-12-23T12:27:50.300Z,61.30
2022-12-23T12:30:22.413Z,55.00
2022-12-23T12:32:57.502Z,58.30
2022-12-23T12:35:35.943Z,56.40
2022-12-23T12:38:09.660Z,59.00
2022-12-23T12:40:41.699Z,49.37
2022-12-23T12:43:21.822Z,52.53
2022-12-23T12:45:55.015Z,54.50
2022-12-23T12:48:34.911Z,58.70
2022-12-23T12:51:08.553Z,55.70
2022-12-23T12:53:40.243Z,52.97
2022-12-23T12:56:18.144Z,46.83
2022-12-23T12:58:50.218Z,46.07
2022-12-23T13:01:30.460Z,42.33
2022-12-23T13:04:28.076Z,43.00
2022-12-23T13:07:04.744Z,49.17
2022-12-23T13:09:50.876Z,45.20
2022-12-23T13:12:24.472Z,43.83
2022-12-23T13:15:01.715Z,40.53
2022-12-23T13:17:35.605Z,49.40
2022-12-23T13:20:12.808Z,43.37
2022-12-23T13:22:42.865Z,46.00
2022-12-23T13:25:16.019Z,70.17
2022-12-23T13:27:49.419Z,45.17
2022-12-23T13:30:24.032Z,106.20
2022-12-23T13:33:16.277Z,115.20
2022-12-23T13:36:04.922Z,53.87
2022-12-23T13:38:50.484Z,43.27
2022-12-23T13:41:26.822Z,40.20
2022-12-23T13:43:59.493Z,43.07
2022-12-23T13:46:39.526Z,39.50
2022-12-23T13:49:13.237Z,39.43
2022-12-23T13:51:47.121Z,70.10
2022-12-23T13:54:24.515Z,40.63
2022-12-23T13:57:08.060Z,40.53
2022-12-23T13:59:42.218Z,36.93
2022-12-23T14:02:46.391Z,39.07
2022-12-23T14:05:34.477Z,44.30
2022-12-23T14:08:05.860Z,39.93
2022-12-23T14:10:35.765Z,40.63
2022-12-23T14:13:08.664Z,34.83
2022-12-23T14:15:48.947Z,38.33
2022-12-23T14:18:32.782Z,35.17
2022-12-23T14:21:10.036Z,37.90
2022-12-23T14:23:50.572Z,37.53
2022-12-23T14:26:33.111Z,34.70
2022-12-23T14:29:15.583Z,37.30
2022-12-23T14:31:46.800Z,37.80
2022-12-23T14:34:36.871Z,100.67
2022-12-23T14:37:38.080Z,49.20
2022-12-23T14:40:51.369Z,104.50
2022-12-23T14:43:29.376Z,41.77
2022-12-23T14:46:00.345Z,30.63
2022-12-23T14:49:36.507Z,29.83
2022-12-23T14:51:52.892Z,41.30
2022-12-23T14:54:46.605Z,41.23
2022-12-23T14:57:30.741Z,42.03
2022-12-23T15:00:04.453Z,40.77
2022-12-23T15:02:36.705Z,37.10
2022-12-23T15:05:07.344Z,36.67
2022-12-23T15:07:40.567Z,39.20
2022-12-23T15:10:16.960Z,37.67
2022-12-23T15:12:50.040Z,42.43
2022-12-23T15:15:21.385Z,37.93
2022-12-23T15:17:54.830Z,43.47
2022-12-23T15:20:26.539Z,38.50
2022-12-23T15:23:03.005Z,39.00
2022-12-23T15:25:34.470Z,37.07
2022-12-23T15:28:05.704Z,39.10
2022-12-23T15:30:38.201Z,43.93
2022-12-23T15:33:34.816Z,38.90
2022-12-23T15:35:59.207Z,40.40
2022-12-23T15:38:33.766Z,44.00
2022-12-23T15:41:04.905Z,38.30
2022-12-23T15:43:34.902Z,38.40
2022-12-23T15:46:10.036Z,46.30
2022-12-23T15:48:40.444Z,72.63
2022-12-23T15:51:14.730Z,75.33
2022-12-23T15:53:48.449Z,44.07
2022-12-23T15:56:23.143Z,75.37
2022-12-23T15:58:53.155Z,46.00
2022-12-23T16:01:24.883Z,69.00
2022-12-23T16:03:56.430Z,51.10
2022-12-23T16:06:28.252Z,54.63
2022-12-23T16:09:09.405Z,69.50
2022-12-23T16:11:44.913Z,69.13
2022-12-23T16:14:27.842Z,64.23
2022-12-23T16:17:02.055Z,65.00
2022-12-23T16:19:42.497Z,58.63
2022-12-23T16:22:27.652Z,56.17
2022-12-23T16:25:05.721Z,51.43
2022-12-23T16:27:40.527Z,61.47
2022-12-23T16:30:19.072Z,51.53
2022-12-23T16:32:54.606Z,46.03
2022-12-23T16:35:31.382Z,53.17
2022-12-23T16:38:13.885Z,51.47
2022-12-23T16:40:48.053Z,47.80
2022-12-23T16:43:18.319Z,53.80
2022-12-23T16:45:49.060Z,54.90
2022-12-23T16:48:22.348Z,51.53
2022-12-23T16:50:52.178Z,52.37
2022-12-23T16:53:22.432Z,58.47
2022-12-23T16:56:00.301Z,51.17
2022-12-23T16:58:30.566Z,91.53
2022-12-23T17:01:00.684Z,123.47
2022-12-23T17:03:30.167Z,125.07
2022-12-23T17:05:59.889Z,105.97
2022-12-23T17:08:29.476Z,121.60
2022-12-23T17:11:01.527Z,79.47
2022-12-23T17:13:31.011Z,102.33
2022-12-23T17:16:00.543Z,55.60
2022-12-23T17:18:30.134Z,55.73
2022-12-23T17:20:59.620Z,52.70
2022-12-23T17:23:31.537Z,53.70
2022-12-23T17:26:03.619Z,55.90
2022-12-23T17:28:34.923Z,54.83
2022-12-23T17:31:10.167Z,58.67
2022-12-23T17:33:43.386Z,64.53
2022-12-23T17:36:14.017Z,58.10
2022-12-23T17:38:43.689Z,58.30
2022-12-23T17:41:20.721Z,58.93
2022-12-23T17:43:50.216Z,61.97
2022-12-23T17:46:19.812Z,72.20
2022-12-23T17:48:49.616Z,64.53
2022-12-23T17:51:20.666Z,63.60
2022-12-23T17:53:56.855Z,63.63
2022-12-23T17:56:31.135Z,61.73
2022-12-23T17:59:00.604Z,64.93
2022-12-23T18:01:31.595Z,84.37
2022-12-23T18:04:02.762Z,88.17
2022-12-23T18:06:32.319Z,69.33
2022-12-23T18:09:01.788Z,71.27
2022-12-23T18:11:37.425Z,70.33
2022-12-23T18:14:07.357Z,64.47
2022-12-23T18:16:36.944Z,63.53
2022-12-23T18:19:06.482Z,89.77
2022-12-23T18:21:36.035Z,112.83
2022-12-23T18:24:05.531Z,59.23
2022-12-23T18:26:37.534Z,81.60
2022-12-23T18:29:07.209Z,60.00
2022-12-23T18:31:36.755Z,57.23
2022-12-23T18:34:06.309Z,60.37
2022-12-23T18:36:36.421Z,53.30
2022-12-23T18:39:06.138Z,55.33
2022-12-23T18:41:38.188Z,61.00
2022-12-23T18:44:07.917Z,58.60
2022-12-23T18:46:37.532Z,65.43
2022-12-23T18:49:06.983Z,58.97
2022-12-23T18:51:36.446Z,61.17
2022-12-23T18:54:05.909Z,60.43
2022-12-23T18:56:38.041Z,52.33
2022-12-23T18:59:07.602Z,71.47
2022-12-23T19:01:37.109Z,62.73
2022-12-23T19:04:06.792Z,55.10
2022-12-23T19:06:36.306Z,62.40
2022-12-23T19:09:06.808Z,62.23
2022-12-23T19:11:38.917Z,53.80
2022-12-23T19:14:08.410Z,55.43
2022-12-23T19:16:38.936Z,61.77
2022-12-23T19:19:09.175Z,68.93
2022-12-23T19:21:38.863Z,61.67
2022-12-23T19:24:08.607Z,70.30
2022-12-23T19:26:40.689Z,52.90
2022-12-23T19:29:11.274Z,59.10
2022-12-23T19:31:40.825Z,57.20
2022-12-23T19:34:14.972Z,47.97
2022-12-23T19:36:45.107Z,55.33
2022-12-23T19:39:16.886Z,50.27
2022-12-23T19:41:49.260Z,46.60
2022-12-23T19:44:18.781Z,52.20
2022-12-23T19:46:48.290Z,68.13
2022-12-23T19:49:20.312Z,99.07
2022-12-23T19:51:50.479Z,170.07
2022-12-23T19:54:20.927Z,73.87
2022-12-23T19:56:54.770Z,65.03
2022-12-23T19:59:24.552Z,68.07
2022-12-23T20:01:54.276Z,71.30
2022-12-23T20:04:24.989Z,62.90
2022-12-23T20:06:54.561Z,57.67
2022-12-23T20:09:24.068Z,49.00
2022-12-23T20:11:56.202Z,55.97
2022-12-23T20:14:30.369Z,45.57
2022-12-23T20:17:01.672Z,43.30
2022-12-23T20:19:31.479Z,44.07
2022-12-23T20:22:00.988Z,44.67
2022-12-23T20:24:33.353Z,59.20
2022-12-23T20:27:11.030Z,44.17
2022-12-23T20:29:41.506Z,46.40
2022-12-23T20:32:11.019Z,49.30
2022-12-23T20:34:40.559Z,55.77
2022-12-23T20:37:11.776Z,65.63
2022-12-23T20:39:41.248Z,58.47
2022-12-23T20:42:13.972Z,47.53
2022-12-23T20:44:43.454Z,35.73
2022-12-23T20:47:13.084Z,55.70
2022-12-23T20:49:42.620Z,50.83
2022-12-23T20:52:12.177Z,50.27
2022-12-23T20:54:41.672Z,55.30
2022-12-23T20:57:13.845Z,52.77
2022-12-23T20:59:43.360Z,43.80
2022-12-23T21:02:15.040Z,44.47
2022-12-23T21:04:44.928Z,41.80
2022-12-23T21:07:14.405Z,41.60
2022-12-23T21:09:43.950Z,41.00
2022-12-23T21:12:16.038Z,34.50
2022-12-23T21:14:45.531Z,37.73
2022-12-23T21:17:15.047Z,33.40
2022-12-23T21:19:44.481Z,38.73
2022-12-23T21:22:13.886Z,33.73
2022-12-23T21:24:43.333Z,31.60
2022-12-23T21:27:12.837Z,35.43
2022-12-23T21:29:44.940Z,29.17
2022-12-23T21:32:14.516Z,32.60
2022-12-23T21:34:44.009Z,28.03
2022-12-23T21:37:13.541Z,25.33
2022-12-23T21:39:42.982Z,33.00
2022-12-23T21:42:13.787Z,27.67
2022-12-23T21:44:45.842Z,42.13
2022-12-23T21:47:15.437Z,26.40
2022-12-23T21:49:44.993Z,23.60
2022-12-23T21:52:14.527Z,22.00
2022-12-23T21:54:44.104Z,19.00
2022-12-23T21:57:13.553Z,16.73
2022-12-23T21:59:45.620Z,20.70
2022-12-23T22:02:18.082Z,16.00
2022-12-23T22:04:48.596Z,19.40
2022-12-23T22:07:18.075Z,17.23
2022-12-23T22:09:47.547Z,21.00
2022-12-23T22:12:17.119Z,19.97
2022-12-23T22:14:49.308Z,16.70
2022-12-23T22:17:18.824Z,22.20
2022-12-23T22:19:48.327Z,26.50
2022-12-23T22:22:17.827Z,19.10
2022-12-23T22:24:48.260Z,22.93
2022-12-23T22:27:17.761Z,47.63
2022-12-23T22:29:49.853Z,37.83
2022-12-23T22:32:19.349Z,27.97
2022-12-23T22:34:48.834Z,33.40
2022-12-23T22:37:18.367Z,27.40
2022-12-23T22:39:47.865Z,18.60
2022-12-23T22:42:17.335Z,26.47
2022-12-23T22:44:49.466Z,36.33
2022-12-23T22:47:19.101Z,37.00
2022-12-23T22:49:48.620Z,32.03
2022-12-23T22:52:18.124Z,33.53
2022-12-23T22:54:47.625Z,28.87
2022-12-23T22:57:17.219Z,25.43
2022-12-23T22:59:49.443Z,20.10
2022-12-23T23:02:18.956Z,18.10
2022-12-23T23:04:48.413Z,18.00
2022-12-23T23:07:18.048Z,19.90
2022-12-23T23:09:47.748Z,25.60
2022-12-23T23:12:17.306Z,23.20
2022-12-23T23:14:55.508Z,21.20
2022-12-23T23:17:26.859Z,22.80
2022-12-23T23:19:56.573Z,22.00
2022-12-23T23:22:27.481Z,21.00
2022-12-23T23:24:58.003Z,18.87
2022-12-23T23:27:29.620Z,21.40
2022-12-23T23:30:01.658Z,18.40
2022-12-23T23:32:31.188Z,22.27
2022-12-23T23:35:05.483Z,27.60
2022-12-23T23:37:39.905Z,27.33
2022-12-23T23:40:12.197Z,24.20
2022-12-23T23:42:41.626Z,25.50
2022-12-23T23:45:14.177Z,27.07
2022-12-23T23:47:43.631Z,25.20
2022-12-23T23:50:13.358Z,19.00
2022-12-23T23:52:42.823Z,17.77
2022-12-23T23:55:13.252Z,23.70
2022-12-23T23:57:42.794Z,17.33
